createdAt,value
2022-10-18T00:00:16.954Z,0
2022-10-18T00:05:09.283Z,0
2022-10-18T00:10:17.792Z,0
2022-10-18T00:15:26.883Z,0
2022-10-18T00:20:35.377Z,0
2022-10-18T00:25:44.518Z,0
2022-10-18T00:30:54.264Z,0
2022-10-18T00:36:04.033Z,0
2022-10-18T00:41:13.746Z,0
2022-10-18T00:46:29.680Z,0
2022-10-18T00:51:47.251Z,0
2022-10-18T00:57:04.528Z,0
2022-10-18T01:02:22.086Z,0
2022-10-18T01:07:39.563Z,0
2022-10-18T01:12:56.228Z,0
2022-10-18T01:18:15.406Z,0
2022-10-18T01:23:31.841Z,0
2022-10-18T01:28:49.236Z,0
2022-10-18T01:34:06.618Z,0
2022-10-18T01:38:11.407Z,0
2022-10-18T01:43:21.123Z,0
2022-10-18T01:48:30.245Z,0
2022-10-18T01:53:39.370Z,0
2022-10-18T01:58:48.482Z,0
2022-10-18T02:03:57.635Z,0
2022-10-18T02:09:06.081Z,0
2022-10-18T02:14:15.844Z,0
2022-10-18T02:24:34.082Z,0
2022-10-18T02:29:43.877Z,0
2022-10-18T02:34:52.335Z,0
2022-10-18T02:40:02.156Z,0
2022-10-18T02:45:11.843Z,0
2022-10-18T02:50:20.324Z,0
2022-10-18T02:55:30.766Z,0
2022-10-18T03:00:39.199Z,0
2022-10-18T03:05:48.326Z,0
2022-10-18T03:11:33.354Z,0
2022-10-18T03:16:42.405Z,0
2022-10-18T03:21:50.887Z,0
2022-10-18T03:27:00.016Z,0
2022-10-18T03:32:07.926Z,0
2022-10-18T03:37:16.972Z,0
2022-10-18T03:42:33.076Z,0
2022-10-18T03:47:49.096Z,0
2022-10-18T03:53:06.531Z,0
2022-10-18T03:58:22.196Z,0
2022-10-18T04:03:40.382Z,0
2022-10-18T04:08:09.772Z,0
2022-10-18T04:14:14.612Z,0
2022-10-18T04:19:31.890Z,0
2022-10-18T04:24:11.918Z,0
2022-10-18T04:29:28.069Z,0
2022-10-18T04:39:58.460Z,0
2022-10-18T04:45:14.626Z,0
2022-10-18T04:49:39.531Z,0
2022-10-18T04:54:33.766Z,0
2022-10-18T04:59:42.250Z,0
2022-10-18T05:04:50.083Z,0
2022-10-18T05:09:59.235Z,0
2022-10-18T05:15:08.962Z,0
2022-10-18T05:20:18.783Z,0
2022-10-18T05:25:29.125Z,0
2022-10-18T05:30:38.918Z,0
2022-10-18T05:35:47.371Z,0
2022-10-18T05:40:56.466Z,1
2022-10-18T05:46:05.155Z,2
2022-10-18T05:51:13.430Z,3
2022-10-18T05:56:24.523Z,5
2022-10-18T06:01:34.246Z,9
2022-10-18T06:06:44.036Z,17
2022-10-18T06:11:52.461Z,14
2022-10-18T06:17:00.959Z,22
2022-10-18T06:22:10.084Z,40
2022-10-18T06:27:19.208Z,47
2022-10-18T06:32:27.682Z,66
2022-10-18T06:37:37.028Z,65
2022-10-18T06:43:21.286Z,52
2022-10-18T06:48:10.768Z,31
2022-10-18T06:53:26.765Z,19
2022-10-18T06:58:43.094Z,27
2022-10-18T07:03:59.725Z,50
2022-10-18T07:09:18.815Z,61
2022-10-18T07:14:42.372Z,83
2022-10-18T07:19:03.342Z,134
2022-10-18T07:24:00.811Z,181
2022-10-18T07:29:11.515Z,159
2022-10-18T07:34:20.967Z,140
2022-10-18T07:39:30.088Z,122
2022-10-18T07:44:39.210Z,123
2022-10-18T07:49:49.013Z,126
2022-10-18T07:54:58.100Z,269
2022-10-18T08:00:07.835Z,408
2022-10-18T08:05:17.906Z,384
2022-10-18T08:10:28.047Z,435
2022-10-18T08:15:38.406Z,550
2022-10-18T08:21:19.580Z,445
2022-10-18T08:26:05.822Z,316
2022-10-18T08:31:21.356Z,300
2022-10-18T08:36:36.865Z,297
2022-10-18T08:41:53.024Z,264
2022-10-18T08:47:09.189Z,303
2022-10-18T08:52:26.040Z,286
2022-10-18T08:57:40.236Z,148
2022-10-18T09:02:16.428Z,156
2022-10-18T09:08:11.939Z,261
2022-10-18T09:12:32.734Z,455
2022-10-18T09:17:49.321Z,374
2022-10-18T09:23:05.620Z,511
2022-10-18T09:28:22.432Z,269
2022-10-18T09:44:10.936Z,559
2022-10-18T09:49:27.648Z,543
2022-10-18T09:54:43.848Z,498
2022-10-18T10:00:01.168Z,544
2022-10-18T10:05:19.318Z,700
2022-10-18T10:10:53.498Z,883
2022-10-18T10:15:20.937Z,795
2022-10-18T10:19:47.274Z,678
2022-10-18T10:25:04.371Z,698
2022-10-18T10:30:06.685Z,642
2022-10-18T10:35:53.971Z,735
2022-10-18T10:40:37.751Z,816
2022-10-18T10:46:09.069Z,857
2022-10-18T10:50:35.332Z,818
2022-10-18T10:55:36.036Z,816
2022-10-18T11:00:34.724Z,945
2022-10-18T11:05:44.522Z,950
2022-10-18T11:10:54.359Z,1370
2022-10-18T11:16:05.333Z,1300
2022-10-18T11:19:32.020Z,1155
2022-10-18T11:25:40.011Z,655
2022-10-18T11:26:07.049Z,655
2022-10-18T11:31:16.030Z,868
2022-10-18T11:37:38.717Z,506
2022-10-18T11:41:22.266Z,506
2022-10-18T11:46:31.215Z,569
2022-10-18T11:58:07.540Z,692
2022-10-18T12:17:57.394Z,784
2022-10-18T12:23:06.403Z,898
2022-10-18T12:31:45.009Z,782
2022-10-18T12:43:58.832Z,674
2022-10-18T12:48:24.427Z,538
2022-10-18T12:54:31.576Z,544
2022-10-18T12:59:49.423Z,326
2022-10-18T13:05:12.287Z,494
2022-10-18T13:26:16.859Z,443
2022-10-18T13:30:43.189Z,318
2022-10-18T13:34:20.779Z,413
2022-10-18T13:39:14.141Z,651
2022-10-18T13:44:23.875Z,396
2022-10-18T13:49:32.970Z,248
2022-10-18T13:54:42.120Z,259
2022-10-18T13:59:54.454Z,335
2022-10-18T14:05:30.424Z,294
2022-10-18T14:11:03.808Z,282
2022-10-18T14:15:48.007Z,270
2022-10-18T14:21:21.174Z,260
2022-10-18T14:26:06.901Z,250
2022-10-18T14:31:15.371Z,242
2022-10-18T14:36:24.500Z,234
2022-10-18T14:41:33.662Z,225
2022-10-18T14:46:42.739Z,218
2022-10-18T14:51:53.138Z,211
2022-10-18T14:57:02.327Z,203
2022-10-18T15:02:10.735Z,198
2022-10-18T15:07:19.855Z,192
2022-10-18T15:13:10.423Z,185
2022-10-18T15:17:39.371Z,178
2022-10-18T15:22:50.104Z,171
2022-10-18T15:27:58.285Z,164
2022-10-18T15:33:08.004Z,156
2022-10-18T15:38:17.793Z,148
2022-10-18T15:43:27.530Z,140
2022-10-18T15:48:36.657Z,131
2022-10-18T15:53:46.780Z,123
2022-10-18T15:59:03.582Z,112
2022-10-18T16:04:18.512Z,101
2022-10-18T16:09:34.621Z,89
2022-10-18T16:14:50.176Z,75
2022-10-18T16:20:05.664Z,61
2022-10-18T16:25:23.449Z,46
2022-10-18T16:30:36.063Z,31
2022-10-18T16:35:55.435Z,18
2022-10-18T16:41:10.282Z,9
2022-10-18T16:46:26.464Z,3
2022-10-18T16:51:43.252Z,1
2022-10-18T16:57:00.701Z,0
2022-10-18T17:02:15.586Z,0
2022-10-18T17:06:40.461Z,0
2022-10-18T17:11:10.888Z,0
2022-10-18T17:16:22.186Z,0
2022-10-18T17:21:38.304Z,0
2022-10-18T17:27:17.874Z,0
2022-10-18T17:32:11.288Z,0
2022-10-18T17:37:27.424Z,0
2022-10-18T17:42:42.942Z,0
2022-10-18T17:47:59.743Z,0
2022-10-18T17:53:17.047Z,0
2022-10-18T17:58:31.423Z,0
2022-10-18T18:03:49.628Z,0
2022-10-18T18:09:02.493Z,0
2022-10-18T18:14:18.632Z,0
2022-10-18T18:19:33.511Z,0
2022-10-18T18:23:58.381Z,0
2022-10-18T18:28:51.252Z,0
2022-10-18T18:33:59.880Z,0
2022-10-18T18:39:07.686Z,0
2022-10-18T18:44:16.800Z,0
2022-10-18T18:49:27.216Z,0
2022-10-18T18:54:35.680Z,0
2022-10-18T18:59:44.813Z,0
2022-10-18T19:04:54.576Z,0
2022-10-18T19:10:03.051Z,0
2022-10-18T19:15:10.899Z,0
2022-10-18T19:20:20.037Z,0
2022-10-18T19:25:30.407Z,0
2022-10-18T19:30:40.799Z,0
2022-10-18T19:35:51.198Z,0
2022-10-18T19:40:59.684Z,0
2022-10-18T19:46:08.829Z,0
2022-10-18T19:51:28.631Z,0
2022-10-18T19:56:28.975Z,0
2022-10-18T20:01:39.181Z,0
2022-10-18T20:06:47.216Z,0
2022-10-18T20:11:58.762Z,0
2022-10-18T20:17:15.402Z,0
2022-10-18T20:22:33.799Z,0
2022-10-18T20:27:50.224Z,0
2022-10-18T20:33:06.290Z,0
2022-10-18T20:38:23.728Z,0
2022-10-18T20:43:41.167Z,0
2022-10-18T20:48:58.606Z,0
2022-10-18T20:53:26.047Z,0
2022-10-18T20:58:20.322Z,0
2022-10-18T21:03:30.122Z,0
2022-10-18T21:08:39.847Z,0
2022-10-18T21:14:09.673Z,0
2022-10-18T21:19:25.870Z,0
2022-10-18T21:24:40.718Z,0
2022-10-18T21:29:56.286Z,0
2022-10-18T21:35:12.417Z,0
2022-10-18T21:40:30.537Z,0
2022-10-18T21:45:45.332Z,0
2022-10-18T21:51:00.317Z,0
2022-10-18T21:55:24.467Z,0
2022-10-18T22:00:16.543Z,0
2022-10-18T22:05:24.670Z,0
2022-10-18T22:10:32.484Z,0
2022-10-18T22:15:41.647Z,0
2022-10-18T22:20:50.723Z,0
2022-10-18T22:25:59.845Z,0
2022-10-18T22:31:09.604Z,0
2022-10-18T22:36:18.887Z,0
2022-10-18T22:41:28.483Z,0
2022-10-18T22:46:37.608Z,0
2022-10-18T22:51:48.013Z,0
2022-10-18T22:56:56.485Z,0
2022-10-18T23:02:04.958Z,0
2022-10-18T23:07:13.461Z,0
2022-10-18T23:12:22.558Z,0
2022-10-18T23:17:33.357Z,0
2022-10-18T23:22:40.832Z,0
2022-10-18T23:27:52.679Z,0
2022-10-18T23:33:10.810Z,0
2022-10-18T23:38:27.104Z,0
2022-10-18T23:43:46.930Z,0
2022-10-18T23:49:05.182Z,0
2022-10-18T23:54:21.325Z,0
2022-10-18T23:59:38.774Z,0
